createdAt,value
2023-01-25T00:00:27.504Z,1.33
2023-01-25T00:05:29.163Z,1.28
2023-01-25T00:10:30.807Z,1.26
2023-01-25T00:15:32.395Z,1.25
2023-01-25T00:20:33.902Z,1.23
2023-01-25T00:25:35.668Z,1.21
2023-01-25T00:30:39.359Z,1.19
2023-01-25T00:35:40.910Z,1.18
2023-01-25T00:40:42.442Z,1.15
2023-01-25T00:45:43.996Z,1.11
2023-01-25T00:50:45.555Z,1.11
2023-01-25T00:55:53.851Z,1.11
2023-01-25T01:00:56.572Z,1.11
2023-01-25T01:06:03.723Z,1.09
2023-01-25T01:11:07.701Z,1.09
2023-01-25T01:16:12.417Z,1.09
2023-01-25T01:21:14.788Z,1.09
2023-01-25T01:26:21.295Z,1.10
2023-01-25T01:31:24.174Z,1.11
2023-01-25T01:36:37.556Z,1.12
2023-01-25T01:41:40.053Z,1.13
2023-01-25T01:46:51.582Z,1.12
2023-01-25T01:52:12.076Z,1.12
2023-01-25T01:57:20.055Z,1.13
2023-01-25T02:02:25.031Z,1.15
2023-01-25T02:07:35.356Z,1.16
2023-01-25T02:12:39.510Z,1.15
2023-01-25T02:17:42.795Z,1.14
2023-01-25T02:23:24.330Z,1.13
2023-01-25T02:28:31.658Z,1.15
2023-01-25T02:33:33.301Z,1.15
2023-01-25T02:38:57.814Z,1.12
2023-01-25T02:44:01.972Z,1.14
2023-01-25T02:49:06.721Z,1.13
2023-01-25T02:54:11.147Z,1.14
2023-01-25T02:59:13.514Z,1.13
2023-01-25T03:04:17.710Z,1.13
2023-01-25T03:09:19.279Z,1.11
2023-01-25T03:14:25.751Z,1.11
2023-01-25T03:19:28.242Z,1.12
2023-01-25T03:24:30.086Z,1.08
2023-01-25T03:29:33.520Z,1.08
2023-01-25T03:34:36.192Z,1.05
2023-01-25T03:39:38.073Z,1.08
2023-01-25T03:44:39.710Z,1.05
2023-01-25T03:49:41.466Z,1.06
2023-01-25T03:54:44.273Z,1.05
2023-01-25T03:59:48.344Z,1.03
2023-01-25T04:04:50.045Z,1.01
2023-01-25T04:09:56.347Z,0.99
2023-01-25T04:15:00.684Z,0.99
2023-01-25T04:20:02.476Z,0.97
2023-01-25T04:25:10.932Z,0.91
2023-01-25T04:30:18.802Z,0.87
2023-01-25T04:35:22.761Z,0.85
2023-01-25T04:40:24.618Z,0.82
2023-01-25T04:45:29.170Z,0.77
2023-01-25T04:50:32.027Z,0.74
2023-01-25T04:55:35.229Z,0.73
2023-01-25T05:00:37.573Z,0.75
2023-01-25T05:05:43.178Z,0.74
2023-01-25T05:10:46.262Z,0.73
2023-01-25T05:16:09.037Z,0.72
2023-01-25T05:21:31.035Z,0.69
2023-01-25T05:26:51.243Z,0.70
2023-01-25T05:31:52.920Z,0.71
2023-01-25T05:36:54.675Z,0.65
2023-01-25T05:41:59.406Z,0.64
2023-01-25T05:47:01.940Z,0.59
2023-01-25T05:52:03.809Z,0.58
2023-01-25T05:57:06.315Z,0.58
2023-01-25T06:02:09.314Z,0.53
2023-01-25T06:07:11.095Z,0.52
2023-01-25T06:12:12.872Z,0.50
2023-01-25T06:17:14.479Z,0.51
2023-01-25T06:22:37.508Z,0.46
2023-01-25T06:27:39.050Z,0.45
2023-01-25T06:32:40.583Z,0.43
2023-01-25T06:37:42.296Z,0.43
2023-01-25T06:42:43.861Z,0.40
2023-01-25T06:47:46.749Z,0.40
2023-01-25T06:52:55.226Z,0.42
2023-01-25T06:58:00.556Z,0.42
2023-01-25T07:03:02.156Z,0.38
2023-01-25T07:08:03.871Z,0.38
2023-01-25T07:13:05.426Z,0.40
2023-01-25T07:18:15.959Z,0.38
2023-01-25T07:23:19.261Z,0.37
2023-01-25T07:28:20.865Z,0.38
2023-01-25T07:33:22.927Z,0.38
2023-01-25T07:38:24.498Z,0.38
2023-01-25T07:43:26.324Z,0.38
2023-01-25T07:48:28.255Z,0.42
2023-01-25T07:53:29.855Z,0.43
2023-01-25T07:58:31.393Z,0.42
2023-01-25T08:03:35.310Z,0.43
2023-01-25T08:08:43.865Z,0.44
2023-01-25T08:13:49.714Z,0.43
2023-01-25T08:18:56.649Z,0.39
2023-01-25T08:23:59.998Z,0.38
2023-01-25T08:29:02.316Z,0.45
2023-01-25T08:34:09.467Z,0.46
2023-01-25T08:39:12.393Z,0.44
2023-01-25T08:44:13.995Z,0.50
2023-01-25T08:49:15.950Z,0.57
2023-01-25T08:54:17.571Z,0.59
2023-01-25T08:59:19.173Z,0.65
2023-01-25T09:04:20.856Z,0.65
2023-01-25T09:09:22.618Z,0.63
2023-01-25T09:14:24.324Z,0.65
2023-01-25T09:19:25.943Z,0.70
2023-01-25T09:24:27.606Z,0.72
2023-01-25T09:29:29.190Z,0.77
2023-01-25T09:34:30.891Z,0.84
2023-01-25T09:39:32.700Z,0.80
2023-01-25T09:44:52.815Z,0.81
2023-01-25T09:50:25.198Z,0.80
2023-01-25T09:55:29.694Z,0.86
2023-01-25T10:00:42.238Z,0.94
2023-01-25T10:05:53.472Z,0.99
2023-01-25T10:11:02.227Z,1.09
2023-01-25T10:16:14.649Z,1.15
2023-01-25T10:21:26.843Z,1.13
2023-01-25T10:26:33.987Z,1.22
2023-01-25T10:31:44.374Z,1.26
2023-01-25T10:36:50.851Z,1.35
2023-01-25T10:42:04.960Z,1.36
2023-01-25T10:47:35.502Z,1.29
2023-01-25T10:52:37.954Z,1.29
2023-01-25T10:57:44.360Z,1.34
2023-01-25T11:02:47.905Z,1.39
2023-01-25T11:07:49.475Z,1.38
2023-01-25T11:13:17.307Z,1.36
2023-01-25T11:18:23.207Z,1.37
2023-01-25T11:23:26.224Z,1.42
2023-01-25T11:28:27.816Z,1.43
2023-01-25T11:33:30.642Z,1.41
2023-01-25T11:38:32.347Z,1.45
2023-01-25T11:43:51.208Z,1.52
2023-01-25T11:48:57.578Z,1.51
2023-01-25T11:54:46.665Z,1.55
2023-01-25T12:00:14.377Z,1.55
2023-01-25T12:05:31.184Z,1.57
2023-01-25T12:10:56.570Z,1.56
2023-01-25T12:16:22.433Z,1.52
2023-01-25T12:21:42.915Z,1.58
2023-01-25T12:27:04.956Z,1.60
2023-01-25T12:32:19.029Z,1.52
2023-01-25T12:37:28.834Z,1.45
2023-01-25T12:42:42.797Z,1.40
2023-01-25T12:47:50.947Z,1.39
2023-01-25T12:52:58.072Z,1.38
2023-01-25T12:58:36.932Z,1.38
2023-01-25T13:03:57.522Z,1.36
2023-01-25T13:09:11.839Z,1.35
2023-01-25T13:14:16.109Z,1.33
2023-01-25T13:19:39.009Z,1.28
2023-01-25T13:25:02.580Z,1.25
2023-01-25T13:30:16.213Z,1.29
2023-01-25T13:35:37.834Z,1.30
2023-01-25T13:40:40.057Z,1.25
2023-01-25T13:45:42.513Z,1.31
2023-01-25T13:50:50.453Z,1.29
2023-01-25T13:55:56.996Z,1.31
2023-01-25T14:01:08.285Z,1.28
2023-01-25T14:06:41.160Z,1.25
2023-01-25T14:11:52.253Z,1.19
2023-01-25T14:17:04.382Z,1.17
2023-01-25T14:22:26.287Z,1.13
2023-01-25T14:27:28.202Z,1.10
2023-01-25T14:32:29.844Z,1.09
2023-01-25T14:37:31.528Z,1.12
2023-01-25T14:42:33.247Z,1.09
2023-01-25T14:47:35.669Z,1.11
2023-01-25T14:52:40.420Z,1.13
2023-01-25T14:57:42.366Z,1.10
2023-01-25T15:02:51.541Z,1.07
2023-01-25T15:07:54.455Z,1.08
2023-01-25T15:13:13.633Z,1.05
2023-01-25T15:18:47.815Z,0.99
2023-01-25T15:23:50.351Z,0.96
2023-01-25T15:28:54.942Z,0.97
2023-01-25T15:33:57.931Z,0.95
2023-01-25T15:39:00.023Z,0.97
2023-01-25T15:44:01.586Z,0.93
2023-01-25T15:49:05.816Z,0.92
2023-01-25T15:54:08.218Z,0.92
2023-01-25T15:59:17.447Z,0.94
2023-01-25T16:04:19.057Z,0.92
2023-01-25T16:09:23.489Z,0.95
2023-01-25T16:14:30.743Z,0.93
2023-01-25T16:19:32.972Z,0.91
2023-01-25T16:24:34.713Z,0.86
2023-01-25T16:29:36.413Z,0.86
2023-01-25T16:34:38.821Z,0.87
2023-01-25T16:39:40.473Z,0.85
2023-01-25T16:44:42.035Z,0.79
2023-01-25T16:49:43.729Z,0.76
2023-01-25T16:54:45.329Z,0.77
2023-01-25T16:59:46.918Z,0.79
2023-01-25T17:04:48.480Z,0.80
2023-01-25T17:09:50.008Z,0.75
2023-01-25T17:14:51.579Z,0.72
2023-01-25T17:19:53.287Z,0.68
2023-01-25T17:24:55.850Z,0.66
2023-01-25T17:29:57.454Z,0.64
2023-01-25T17:35:01.453Z,0.62
2023-01-25T17:40:03.670Z,0.63
2023-01-25T17:45:05.792Z,0.63
2023-01-25T17:50:08.511Z,0.61
2023-01-25T17:55:10.738Z,0.62
2023-01-25T18:00:13.091Z,0.59
2023-01-25T18:05:15.855Z,0.63
2023-01-25T18:10:17.656Z,0.60
2023-01-25T18:15:22.351Z,0.58
2023-01-25T18:20:23.945Z,0.55
2023-01-25T18:25:35.019Z,0.56
2023-01-25T18:30:42.997Z,0.60
2023-01-25T18:35:47.837Z,0.62
2023-01-25T18:40:49.445Z,0.63
2023-01-25T18:45:56.034Z,0.61
2023-01-25T18:51:19.845Z,0.62
2023-01-25T18:56:22.123Z,0.61
2023-01-25T19:01:24.783Z,0.62
2023-01-25T19:06:26.454Z,0.59
2023-01-25T19:11:28.099Z,0.59
2023-01-25T19:16:30.913Z,0.60
2023-01-25T19:21:33.734Z,0.61
2023-01-25T19:26:35.363Z,0.56
2023-01-25T19:31:37.426Z,0.54
2023-01-25T19:36:45.964Z,0.48
2023-01-25T19:41:47.538Z,0.49
2023-01-25T19:46:49.298Z,0.47
2023-01-25T19:51:55.090Z,0.39
2023-01-25T19:56:58.604Z,0.37
2023-01-25T20:02:00.475Z,0.35
2023-01-25T20:07:02.171Z,0.33
2023-01-25T20:12:09.247Z,0.32
2023-01-25T20:17:10.882Z,0.32
2023-01-25T20:22:12.600Z,0.28
2023-01-25T20:27:14.206Z,0.28
2023-01-25T20:32:31.546Z,0.30
2023-01-25T20:37:34.191Z,0.32
2023-01-25T20:42:36.626Z,0.34
2023-01-25T20:47:38.242Z,0.33
2023-01-25T20:52:39.949Z,0.33
2023-01-25T20:57:41.720Z,0.33
2023-01-25T21:02:43.342Z,0.35
2023-01-25T21:07:44.991Z,0.36
2023-01-25T21:12:46.578Z,0.34
2023-01-25T21:17:52.661Z,0.30
2023-01-25T21:22:54.339Z,0.33
2023-01-25T21:27:55.957Z,0.28
2023-01-25T21:32:57.647Z,0.33
2023-01-25T21:37:59.323Z,0.35
2023-01-25T21:43:00.884Z,0.32
2023-01-25T21:48:02.409Z,0.31
2023-01-25T21:53:03.963Z,0.27
2023-01-25T21:58:05.553Z,0.24
2023-01-25T22:03:07.130Z,0.23
2023-01-25T22:08:08.710Z,0.20
2023-01-25T22:13:14.644Z,0.16
2023-01-25T22:18:16.214Z,0.11
2023-01-25T22:23:17.778Z,0.08
2023-01-25T22:28:19.547Z,0.03
2023-01-25T22:33:21.582Z,-0.01
2023-01-25T22:38:23.207Z,-0.04
2023-01-25T22:43:24.844Z,-0.09
2023-01-25T22:48:26.955Z,-0.14
2023-01-25T22:53:29.251Z,-0.21
2023-01-25T22:58:31.040Z,-0.17
2023-01-25T23:03:32.971Z,-0.18
2023-01-25T23:08:36.204Z,-0.22
2023-01-25T23:13:39.823Z,-0.23
2023-01-25T23:18:50.269Z,-0.19
2023-01-25T23:23:51.915Z,-0.22
2023-01-25T23:28:55.569Z,-0.29
2023-01-25T23:33:59.717Z,-0.34
2023-01-25T23:39:01.568Z,-0.36
2023-01-25T23:44:03.115Z,-0.32
2023-01-25T23:49:04.836Z,-0.27
2023-01-25T23:54:06.389Z,-0.27
2023-01-25T23:59:10.343Z,-0.24
